sensor_id;sensor_type;location;lat;lon;timestamp;pressure;altitude;pressure_sealevel;temperature;humidity
17362;BME280;8798;51.938;4.348;2023-02-28T00:01:11;102595.97;;;2.80;63.91
17362;BME280;8798;51.938;4.348;2023-02-28T00:03:39;102600.44;;;2.80;64.31
17362;BME280;8798;51.938;4.348;2023-02-28T00:06:08;102620.66;;;2.83;64.66
17362;BME280;8798;51.938;4.348;2023-02-28T00:08:39;102646.97;;;2.89;64.04
17362;BME280;8798;51.938;4.348;2023-02-28T00:11:09;102689.13;;;2.96;65.09
17362;BME280;8798;51.938;4.348;2023-02-28T00:13:39;102719.91;;;3.02;64.32
17362;BME280;8798;51.938;4.348;2023-02-28T00:16:09;102751.53;;;3.08;64.45
17362;BME280;8798;51.938;4.348;2023-02-28T00:18:37;102770.69;;;3.16;65.24
17362;BME280;8798;51.938;4.348;2023-02-28T00:21:06;102812.00;;;3.25;65.24
17362;BME280;8798;51.938;4.348;2023-02-28T00:23:34;102849.81;;;3.32;64.99
17362;BME280;8798;51.938;4.348;2023-02-28T00:26:04;102884.06;;;3.39;64.60
17362;BME280;8798;51.938;4.348;2023-02-28T00:28:32;102912.16;;;3.47;64.83
17362;BME280;8798;51.938;4.348;2023-02-28T00:30:59;102935.00;;;3.51;64.86
17362;BME280;8798;51.938;4.348;2023-02-28T00:33:27;102960.53;;;3.56;64.90
17362;BME280;8798;51.938;4.348;2023-02-28T00:36:06;102991.31;;;3.62;65.17
17362;BME280;8798;51.938;4.348;2023-02-28T00:38:34;102997.44;;;3.64;65.38
17362;BME280;8798;51.938;4.348;2023-02-28T00:41:03;103017.66;;;3.68;65.56
17362;BME280;8798;51.938;4.348;2023-02-28T00:43:32;103026.44;;;3.70;65.21
17362;BME280;8798;51.938;4.348;2023-02-28T00:46:00;103048.44;;;3.75;65.39
17362;BME280;8798;51.938;4.348;2023-02-28T00:48:28;103067.81;;;3.79;65.62
17362;BME280;8798;51.938;4.348;2023-02-28T00:50:56;103087.97;;;3.84;65.46
17362;BME280;8798;51.938;4.348;2023-02-28T00:53:24;103110.00;;;3.88;65.88
17362;BME280;8798;51.938;4.348;2023-02-28T00:55:52;103128.47;;;3.93;65.62
17362;BME280;8798;51.938;4.348;2023-02-28T00:58:21;103152.25;;;3.97;65.66
17362;BME280;8798;51.938;4.348;2023-02-28T01:00:49;103157.44;;;4.00;65.53
17362;BME280;8798;51.938;4.348;2023-02-28T01:03:19;103184.75;;;4.05;65.53
17362;BME280;8798;51.938;4.348;2023-02-28T01:05:47;103200.56;;;4.10;65.87
17362;BME280;8798;51.938;4.348;2023-02-28T01:08:15;103205.78;;;4.13;65.76
17362;BME280;8798;51.938;4.348;2023-02-28T01:10:42;103218.13;;;4.16;65.49
17362;BME280;8798;51.938;4.348;2023-02-28T01:13:11;103236.63;;;4.19;65.86
17362;BME280;8798;51.938;4.348;2023-02-28T01:15:42;103245.44;;;4.21;65.75
17362;BME280;8798;51.938;4.348;2023-02-28T01:18:10;103241.81;;;4.23;65.81
17362;BME280;8798;51.938;4.348;2023-02-28T01:20:38;103256.78;;;4.26;65.77
17362;BME280;8798;51.938;4.348;2023-02-28T01:23:06;103271.78;;;4.28;66.10
17362;BME280;8798;51.938;4.348;2023-02-28T01:25:34;103273.56;;;4.28;66.29
17362;BME280;8798;51.938;4.348;2023-02-28T01:28:02;103270.84;;;4.29;65.98
17362;BME280;8798;51.938;4.348;2023-02-28T01:30:30;103278.72;;;4.32;66.38
17362;BME280;8798;51.938;4.348;2023-02-28T01:32:59;103298.16;;;4.35;65.88
17362;BME280;8798;51.938;4.348;2023-02-28T01:35:27;103306.06;;;4.38;66.31
17362;BME280;8798;51.938;4.348;2023-02-28T01:37:55;103311.31;;;4.39;66.03
17362;BME280;8798;51.938;4.348;2023-02-28T01:40:35;103321.84;;;4.42;66.16
17362;BME280;8798;51.938;4.348;2023-02-28T01:43:02;103322.69;;;4.44;66.59
17362;BME280;8798;51.938;4.348;2023-02-28T01:45:31;103329.69;;;4.47;66.24
17362;BME280;8798;51.938;4.348;2023-02-28T01:48:05;103343.88;;;4.47;66.44
17362;BME280;8798;51.938;4.348;2023-02-28T01:50:39;103345.56;;;4.50;66.38
17362;BME280;8798;51.938;4.348;2023-02-28T01:53:11;103358.78;;;4.53;66.46
17362;BME280;8798;51.938;4.348;2023-02-28T01:55:42;103354.31;;;4.53;66.54
17362;BME280;8798;51.938;4.348;2023-02-28T01:58:12;103351.66;;;4.53;66.21
17362;BME280;8798;51.938;4.348;2023-02-28T02:00:40;103360.47;;;4.56;66.46
17362;BME280;8798;51.938;4.348;2023-02-28T02:03:12;103365.69;;;4.59;66.80
17362;BME280;8798;51.938;4.348;2023-02-28T02:05:42;103370.97;;;4.60;66.65
17362;BME280;8798;51.938;4.348;2023-02-28T02:08:17;103382.38;;;4.64;66.93
17362;BME280;8798;51.938;4.348;2023-02-28T02:10:48;103395.56;;;4.67;66.53
17362;BME280;8798;51.938;4.348;2023-02-28T02:13:37;103406.19;;;4.68;67.10
17362;BME280;8798;51.938;4.348;2023-02-28T02:16:18;103408.81;;;4.70;66.83
17362;BME280;8798;51.938;4.348;2023-02-28T02:18:52;103402.56;;;4.71;67.08
17362;BME280;8798;51.938;4.348;2023-02-28T02:21:37;103395.53;;;4.68;66.95
17362;BME280;8798;51.938;4.348;2023-02-28T02:27:42;103346.13;;;4.60;67.06
17362;BME280;8798;51.938;4.348;2023-02-28T02:30:41;103333.78;;;4.57;66.86
17362;BME280;8798;51.938;4.348;2023-02-28T02:33:28;103332.06;;;4.56;67.06
17362;BME280;8798;51.938;4.348;2023-02-28T02:36:07;103334.72;;;4.56;67.07
17362;BME280;8798;51.938;4.348;2023-02-28T02:38:46;103325.88;;;4.56;67.40
17362;BME280;8798;51.938;4.348;2023-02-28T02:41:19;103334.69;;;4.58;67.13
17362;BME280;8798;51.938;4.348;2023-02-28T02:43:53;103346.09;;;4.61;67.37
17362;BME280;8798;51.938;4.348;2023-02-28T02:46:26;103356.63;;;4.64;67.16
17362;BME280;8798;51.938;4.348;2023-02-28T02:48:59;103376.88;;;4.70;67.25
17362;BME280;8798;51.938;4.348;2023-02-28T02:51:30;103390.00;;;4.74;67.75
17362;BME280;8798;51.938;4.348;2023-02-28T02:54:03;103404.97;;;4.79;67.03
17362;BME280;8798;51.938;4.348;2023-02-28T02:56:34;103415.47;;;4.83;67.22
17362;BME280;8798;51.938;4.348;2023-02-28T02:59:07;103431.34;;;4.86;67.62
17362;BME280;8798;51.938;4.348;2023-02-28T03:01:37;103440.13;;;4.90;67.78
17362;BME280;8798;51.938;4.348;2023-02-28T03:04:08;103456.84;;;4.93;67.66
17362;BME280;8798;51.938;4.348;2023-02-28T03:06:38;103459.47;;;4.95;68.05
17362;BME280;8798;51.938;4.348;2023-02-28T03:09:05;103466.50;;;4.98;68.11
17362;BME280;8798;51.938;4.348;2023-02-28T03:11:35;103471.72;;;5.01;67.94
17362;BME280;8798;51.938;4.348;2023-02-28T03:14:12;103488.44;;;5.04;68.09
17362;BME280;8798;51.938;4.348;2023-02-28T03:17:02;103495.47;;;5.07;67.69
17362;BME280;8798;51.938;4.348;2023-02-28T03:19:47;103493.69;;;5.07;67.75
17362;BME280;8798;51.938;4.348;2023-02-28T03:22:43;103490.97;;;5.09;67.66
17362;BME280;8798;51.938;4.348;2023-02-28T03:25:27;103487.41;;;5.10;68.28
17362;BME280;8798;51.938;4.348;2023-02-28T03:28:03;103504.22;;;5.12;67.71
17362;BME280;8798;51.938;4.348;2023-02-28T03:30:38;103500.56;;;5.14;68.20
17362;BME280;8798;51.938;4.348;2023-02-28T03:33:11;103502.31;;;5.15;67.76
17362;BME280;8798;51.938;4.348;2023-02-28T03:35:43;103504.00;;;5.18;68.39
17362;BME280;8798;51.938;4.348;2023-02-28T03:38:18;103498.78;;;5.15;68.35
17362;BME280;8798;51.938;4.348;2023-02-28T03:40:50;103478.44;;;5.12;68.51
17362;BME280;8798;51.938;4.348;2023-02-28T03:43:24;103483.69;;;5.14;68.43
17362;BME280;8798;51.938;4.348;2023-02-28T03:45:55;103482.78;;;5.15;67.97
17362;BME280;8798;51.938;4.348;2023-02-28T03:48:26;103490.72;;;5.16;68.28
17362;BME280;8798;51.938;4.348;2023-02-28T03:50:58;103488.88;;;5.18;68.38
17362;BME280;8798;51.938;4.348;2023-02-28T03:53:31;103486.22;;;5.18;68.46
17362;BME280;8798;51.938;4.348;2023-02-28T03:56:05;103493.28;;;5.20;68.48
17362;BME280;8798;51.938;4.348;2023-02-28T03:58:39;103490.63;;;5.20;68.19
17362;BME280;8798;51.938;4.348;2023-02-28T04:01:13;103484.38;;;5.21;68.37
17362;BME280;8798;51.938;4.348;2023-02-28T04:03:43;103492.31;;;5.22;68.28
17362;BME280;8798;51.938;4.348;2023-02-28T04:06:15;103487.84;;;5.23;68.46
17362;BME280;8798;51.938;4.348;2023-02-28T04:08:45;103484.31;;;5.22;68.64
17362;BME280;8798;51.938;4.348;2023-02-28T04:11:20;103469.25;;;5.21;68.85
17362;BME280;8798;51.938;4.348;2023-02-28T04:13:48;103477.19;;;5.23;68.27
17362;BME280;8798;51.938;4.348;2023-02-28T04:16:16;103493.06;;;5.26;68.68
17362;BME280;8798;51.938;4.348;2023-02-28T04:19:00;103493.03;;;5.27;68.48
17362;BME280;8798;51.938;4.348;2023-02-28T04:21:30;103497.38;;;5.30;69.21
17362;BME280;8798;51.938;4.348;2023-02-28T04:24:00;103497.31;;;5.31;68.62
17362;BME280;8798;51.938;4.348;2023-02-28T04:26:29;103501.75;;;5.32;68.42
17362;BME280;8798;51.938;4.348;2023-02-28T04:28:57;103508.78;;;5.35;68.67
17362;BME280;8798;51.938;4.348;2023-02-28T04:31:25;103506.94;;;5.37;68.78
17362;BME280;8798;51.938;4.348;2023-02-28T04:33:54;103515.78;;;5.37;69.10
17362;BME280;8798;51.938;4.348;2023-02-28T04:36:22;103517.50;;;5.38;68.62
17362;BME280;8798;51.938;4.348;2023-02-28T04:38:50;103514.78;;;5.42;68.99
17362;BME280;8798;51.938;4.348;2023-02-28T04:41:20;103520.09;;;5.42;69.06
17362;BME280;8798;51.938;4.348;2023-02-28T04:43:50;103507.69;;;5.41;68.69
17362;BME280;8798;51.938;4.348;2023-02-28T04:46:18;103497.09;;;5.39;68.77
17362;BME280;8798;51.938;4.348;2023-02-28T04:48:47;103495.28;;;5.39;69.19
17362;BME280;8798;51.938;4.348;2023-02-28T04:51:17;103491.75;;;5.39;68.68
17362;BME280;8798;51.938;4.348;2023-02-28T04:53:46;103497.97;;;5.39;69.12
17362;BME280;8798;51.938;4.348;2023-02-28T04:56:16;103493.50;;;5.40;68.66
17362;BME280;8798;51.938;4.348;2023-02-28T04:58:45;103497.84;;;5.43;69.52
17362;BME280;8798;51.938;4.348;2023-02-28T05:01:19;103493.44;;;5.42;69.28
17362;BME280;8798;51.938;4.348;2023-02-28T05:03:47;103468.69;;;5.38;69.46
17362;BME280;8798;51.938;4.348;2023-02-28T05:06:16;103465.16;;;5.37;69.44
17362;BME280;8798;51.938;4.348;2023-02-28T05:08:44;103470.47;;;5.37;69.60
17362;BME280;8798;51.938;4.348;2023-02-28T05:11:16;103476.63;;;5.39;69.31
17362;BME280;8798;51.938;4.348;2023-02-28T05:13:46;103465.97;;;5.39;69.19
17362;BME280;8798;51.938;4.348;2023-02-28T05:16:14;103458.97;;;5.37;69.65
17362;BME280;8798;51.938;4.348;2023-02-28T05:18:42;103448.34;;;5.35;69.58
17362;BME280;8798;51.938;4.348;2023-02-28T05:21:23;103444.81;;;5.35;69.90
17362;BME280;8798;51.938;4.348;2023-02-28T05:23:53;103439.47;;;5.35;69.53
17362;BME280;8798;51.938;4.348;2023-02-28T05:26:21;103448.28;;;5.37;69.34
17362;BME280;8798;51.938;4.348;2023-02-28T05:28:51;103451.78;;;5.39;69.58
17362;BME280;8798;51.938;4.348;2023-02-28T05:31:18;103456.19;;;5.40;69.95
17362;BME280;8798;51.938;4.348;2023-02-28T05:33:46;103448.19;;;5.40;69.28
17362;BME280;8798;51.938;4.348;2023-02-28T05:36:14;103450.84;;;5.40;69.36
17362;BME280;8798;51.938;4.348;2023-02-28T05:38:42;103449.91;;;5.41;69.75
17362;BME280;8798;51.938;4.348;2023-02-28T05:41:10;103453.47;;;5.42;69.48
17362;BME280;8798;51.938;4.348;2023-02-28T05:43:38;103441.91;;;5.41;69.95
17362;BME280;8798;51.938;4.348;2023-02-28T05:46:09;103426.03;;;5.38;69.62
17362;BME280;8798;51.938;4.348;2023-02-28T05:48:40;103419.97;;;5.34;69.50
17362;BME280;8798;51.938;4.348;2023-02-28T05:51:09;103399.63;;;5.32;69.91
17362;BME280;8798;51.938;4.348;2023-02-28T05:53:36;103400.59;;;5.29;70.01
17362;BME280;8798;51.938;4.348;2023-02-28T05:56:05;103385.50;;;5.28;69.66
17362;BME280;8798;51.938;4.348;2023-02-28T05:58:33;103375.78;;;5.27;69.51
17362;BME280;8798;51.938;4.348;2023-02-28T06:01:20;103361.69;;;5.24;69.64
17362;BME280;8798;51.938;4.348;2023-02-28T06:03:49;103352.88;;;5.22;69.53
17362;BME280;8798;51.938;4.348;2023-02-28T06:06:17;103345.81;;;5.21;70.29
17362;BME280;8798;51.938;4.348;2023-02-28T06:08:45;103340.50;;;5.21;70.38
17362;BME280;8798;51.938;4.348;2023-02-28T06:11:13;103341.47;;;5.18;69.88
17362;BME280;8798;51.938;4.348;2023-02-28T06:13:41;103325.53;;;5.16;70.47
17362;BME280;8798;51.938;4.348;2023-02-28T06:16:10;103309.66;;;5.13;70.37
17362;BME280;8798;51.938;4.348;2023-02-28T06:18:40;103314.88;;;5.16;69.89
17362;BME280;8798;51.938;4.348;2023-02-28T06:21:08;103334.34;;;5.18;69.84
17362;BME280;8798;51.938;4.348;2023-02-28T06:23:35;103344.84;;;5.23;69.86
17362;BME280;8798;51.938;4.348;2023-02-28T06:26:04;103353.69;;;5.24;70.41
17362;BME280;8798;51.938;4.348;2023-02-28T06:28:31;103351.00;;;5.25;70.31
17362;BME280;8798;51.938;4.348;2023-02-28T06:30:59;103351.84;;;5.26;69.83
17362;BME280;8798;51.938;4.348;2023-02-28T06:33:27;103347.50;;;5.23;69.75
17362;BME280;8798;51.938;4.348;2023-02-28T06:35:56;103336.91;;;5.22;69.98
17362;BME280;8798;51.938;4.348;2023-02-28T06:38:24;103309.63;;;5.15;70.64
17362;BME280;8798;51.938;4.348;2023-02-28T06:40:56;103261.13;;;5.05;70.42
17362;BME280;8798;51.938;4.348;2023-02-28T06:43:25;103233.84;;;4.99;70.26
17362;BME280;8798;51.938;4.348;2023-02-28T06:45:54;103220.69;;;4.94;70.69
17362;BME280;8798;51.938;4.348;2023-02-28T06:48:22;103211.88;;;4.92;70.15
17362;BME280;8798;51.938;4.348;2023-02-28T06:50:50;103214.50;;;4.93;70.34
17362;BME280;8798;51.938;4.348;2023-02-28T06:53:21;103213.66;;;4.93;70.16
17362;BME280;8798;51.938;4.348;2023-02-28T06:55:50;103216.31;;;4.93;70.40
17362;BME280;8798;51.938;4.348;2023-02-28T06:58:18;103197.84;;;4.88;70.31
17362;BME280;8798;51.938;4.348;2023-02-28T07:00:49;103193.44;;;4.87;70.76
17362;BME280;8798;51.938;4.348;2023-02-28T07:03:18;103199.63;;;4.88;70.75
17362;BME280;8798;51.938;4.348;2023-02-28T07:05:46;103196.09;;;4.87;70.20
17362;BME280;8798;51.938;4.348;2023-02-28T07:08:15;103196.09;;;4.87;70.48
17362;BME280;8798;51.938;4.348;2023-02-28T07:10:44;103194.31;;;4.88;70.03
17362;BME280;8798;51.938;4.348;2023-02-28T07:13:12;103216.34;;;4.91;69.57
17362;BME280;8798;51.938;4.348;2023-02-28T07:15:39;103223.44;;;4.92;70.71
17362;BME280;8798;51.938;4.348;2023-02-28T07:18:09;103221.69;;;4.91;70.54
17362;BME280;8798;51.938;4.348;2023-02-28T07:20:37;103216.34;;;4.91;70.58
17362;BME280;8798;51.938;4.348;2023-02-28T07:23:05;103218.09;;;4.92;70.20
17362;BME280;8798;51.938;4.348;2023-02-28T07:25:33;103224.34;;;4.91;70.93
17362;BME280;8798;51.938;4.348;2023-02-28T07:28:02;103218.09;;;4.92;70.09
17362;BME280;8798;51.938;4.348;2023-02-28T07:30:30;103207.53;;;4.89;70.59
17362;BME280;8798;51.938;4.348;2023-02-28T07:32:58;103202.28;;;4.88;70.80
17362;BME280;8798;51.938;4.348;2023-02-28T07:35:25;103185.66;;;4.81;70.48
17362;BME280;8798;51.938;4.348;2023-02-28T07:37:53;103156.63;;;4.75;70.09
17362;BME280;8798;51.938;4.348;2023-02-28T07:40:21;103129.34;;;4.68;69.93
17362;BME280;8798;51.938;4.348;2023-02-28T07:42:49;103117.06;;;4.64;70.48
17362;BME280;8798;51.938;4.348;2023-02-28T07:45:18;103107.41;;;4.62;70.31
17362;BME280;8798;51.938;4.348;2023-02-28T07:47:46;103096.94;;;4.57;70.26
17362;BME280;8798;51.938;4.348;2023-02-28T07:50:15;103090.81;;;4.55;70.53
17362;BME280;8798;51.938;4.348;2023-02-28T07:52:43;103082.00;;;4.53;70.44
17362;BME280;8798;51.938;4.348;2023-02-28T07:55:11;103053.91;;;4.46;70.50
17362;BME280;8798;51.938;4.348;2023-02-28T07:57:40;103022.25;;;4.38;70.06
17362;BME280;8798;51.938;4.348;2023-02-28T08:00:10;103017.97;;;4.34;70.24
17362;BME280;8798;51.938;4.348;2023-02-28T08:02:40;103008.31;;;4.31;70.64
17362;BME280;8798;51.938;4.348;2023-02-28T08:05:08;103006.63;;;4.29;70.51
17362;BME280;8798;51.938;4.348;2023-02-28T08:07:36;103004.00;;;4.27;70.54
17362;BME280;8798;51.938;4.348;2023-02-28T08:10:05;102979.50;;;4.19;70.59
17362;BME280;8798;51.938;4.348;2023-02-28T08:12:33;102937.41;;;4.07;70.61
17362;BME280;8798;51.938;4.348;2023-02-28T08:15:01;102897.88;;;3.98;71.00
17362;BME280;8798;51.938;4.348;2023-02-28T08:17:28;102899.75;;;3.96;70.66
17362;BME280;8798;51.938;4.348;2023-02-28T08:20:00;102907.72;;;3.96;70.72
17362;BME280;8798;51.938;4.348;2023-02-28T08:22:27;102899.75;;;3.96;70.47
17362;BME280;8798;51.938;4.348;2023-02-28T08:24:55;102915.63;;;3.97;70.66
17362;BME280;8798;51.938;4.348;2023-02-28T08:27:23;102925.34;;;3.98;70.70
17362;BME280;8798;51.938;4.348;2023-02-28T08:29:51;102924.44;;;3.98;70.90
17362;BME280;8798;51.938;4.348;2023-02-28T08:32:19;102943.84;;;4.01;70.90
17362;BME280;8798;51.938;4.348;2023-02-28T08:34:56;102961.47;;;4.04;70.64
17362;BME280;8798;51.938;4.348;2023-02-28T08:37:25;102988.75;;;4.09;70.93
17362;BME280;8798;51.938;4.348;2023-02-28T08:39:53;103005.44;;;4.13;70.79
17362;BME280;8798;51.938;4.348;2023-02-28T08:42:22;103014.31;;;4.13;70.96
17362;BME280;8798;51.938;4.348;2023-02-28T08:44:50;103016.03;;;4.14;71.10
17362;BME280;8798;51.938;4.348;2023-02-28T08:47:18;103014.31;;;4.13;71.16
17362;BME280;8798;51.938;4.348;2023-02-28T08:49:46;103007.38;;;4.09;71.35
17362;BME280;8798;51.938;4.348;2023-02-28T08:52:14;102995.09;;;4.05;71.12
17362;BME280;8798;51.938;4.348;2023-02-28T08:54:43;103002.16;;;4.06;71.35
17362;BME280;8798;51.938;4.348;2023-02-28T08:57:11;103004.81;;;4.06;71.58
17362;BME280;8798;51.938;4.348;2023-02-28T08:59:39;103034.69;;;4.13;71.04
17362;BME280;8798;51.938;4.348;2023-02-28T09:02:08;103057.63;;;4.17;71.53
17362;BME280;8798;51.938;4.348;2023-02-28T09:04:36;103068.13;;;4.20;71.21
17362;BME280;8798;51.938;4.348;2023-02-28T09:07:04;103072.56;;;4.21;71.17
17362;BME280;8798;51.938;4.348;2023-02-28T09:09:31;103104.19;;;4.28;71.54
17362;BME280;8798;51.938;4.348;2023-02-28T09:12:01;103116.50;;;4.31;71.52
17362;BME280;8798;51.938;4.348;2023-02-28T09:14:29;103149.97;;;4.38;71.03
17362;BME280;8798;51.938;4.348;2023-02-28T09:16:58;103152.63;;;4.38;71.10
17362;BME280;8798;51.938;4.348;2023-02-28T09:19:25;103170.19;;;4.42;71.67
17362;BME280;8798;51.938;4.348;2023-02-28T09:21:53;103206.28;;;4.51;71.52
17362;BME280;8798;51.938;4.348;2023-02-28T09:24:21;103238.88;;;4.58;71.51
17362;BME280;8798;51.938;4.348;2023-02-28T09:26:49;103255.56;;;4.63;71.96
17362;BME280;8798;51.938;4.348;2023-02-28T09:29:31;103254.66;;;4.62;72.06
17362;BME280;8798;51.938;4.348;2023-02-28T09:31:59;103244.94;;;4.61;71.90
17362;BME280;8798;51.938;4.348;2023-02-28T09:34:28;103234.41;;;4.58;71.85
17362;BME280;8798;51.938;4.348;2023-02-28T09:36:57;103244.06;;;4.61;71.92
17362;BME280;8798;51.938;4.348;2023-02-28T09:39:25;103244.97;;;4.60;71.78
17362;BME280;8798;51.938;4.348;2023-02-28T09:41:55;103222.94;;;4.56;72.03
17362;BME280;8798;51.938;4.348;2023-02-28T09:44:29;103235.31;;;4.57;72.06
17362;BME280;8798;51.938;4.348;2023-02-28T09:47:04;103262.59;;;4.64;72.30
17362;BME280;8798;51.938;4.348;2023-02-28T09:49:38;103300.41;;;4.73;71.72
17362;BME280;8798;51.938;4.348;2023-02-28T09:52:10;103327.72;;;4.80;72.31
17362;BME280;8798;51.938;4.348;2023-02-28T09:54:39;103349.66;;;4.87;72.28
17362;BME280;8798;51.938;4.348;2023-02-28T09:57:10;103369.06;;;4.90;72.41
17362;BME280;8798;51.938;4.348;2023-02-28T09:59:54;103408.72;;;5.00;72.38
17362;BME280;8798;51.938;4.348;2023-02-28T10:02:52;103437.75;;;5.07;72.54
17362;BME280;8798;51.938;4.348;2023-02-28T10:05:27;103457.13;;;5.12;72.06
17362;BME280;8798;51.938;4.348;2023-02-28T10:08:01;103467.63;;;5.17;72.20
17362;BME280;8798;51.938;4.348;2023-02-28T10:10:36;103477.31;;;5.20;72.00
17362;BME280;8798;51.938;4.348;2023-02-28T10:13:13;103494.06;;;5.23;72.75
17362;BME280;8798;51.938;4.348;2023-02-28T10:15:46;103498.41;;;5.26;72.57
17362;BME280;8798;51.938;4.348;2023-02-28T10:18:21;103487.75;;;5.26;72.23
17362;BME280;8798;51.938;4.348;2023-02-28T10:20:51;103478.94;;;5.24;72.82
17362;BME280;8798;51.938;4.348;2023-02-28T10:23:26;103490.38;;;5.27;72.59
17362;BME280;8798;51.938;4.348;2023-02-28T10:26:00;103537.06;;;5.39;72.62
17362;BME280;8798;51.938;4.348;2023-02-28T10:28:29;103576.72;;;5.48;72.30
17362;BME280;8798;51.938;4.348;2023-02-28T10:30:58;103597.00;;;5.54;72.91
17362;BME280;8798;51.938;4.348;2023-02-28T10:33:31;103613.72;;;5.59;73.08
17362;BME280;8798;51.938;4.348;2023-02-28T10:36:01;103630.31;;;5.67;73.08
17362;BME280;8798;51.938;4.348;2023-02-28T10:38:34;103665.56;;;5.77;73.16
17362;BME280;8798;51.938;4.348;2023-02-28T10:41:07;103696.44;;;5.84;73.25
17362;BME280;8798;51.938;4.348;2023-02-28T10:43:36;103718.41;;;5.92;73.17
17362;BME280;8798;51.938;4.348;2023-02-28T10:46:12;103755.50;;;6.01;72.04
17362;BME280;8798;51.938;4.348;2023-02-28T10:48:45;103788.13;;;6.10;73.29
17362;BME280;8798;51.938;4.348;2023-02-28T10:51:16;103803.88;;;6.17;73.03
17362;BME280;8798;51.938;4.348;2023-02-28T10:53:48;103808.25;;;6.20;72.34
17362;BME280;8798;51.938;4.348;2023-02-28T10:56:27;103799.41;;;6.18;72.81
17362;BME280;8798;51.938;4.348;2023-02-28T10:58:59;103784.34;;;6.17;72.76
17362;BME280;8798;51.938;4.348;2023-02-28T11:01:36;103806.38;;;6.23;72.79
17362;BME280;8798;51.938;4.348;2023-02-28T11:04:16;103803.63;;;6.25;73.22
17362;BME280;8798;51.938;4.348;2023-02-28T11:06:45;103841.53;;;6.36;73.04
17362;BME280;8798;51.938;4.348;2023-02-28T11:09:20;103847.66;;;6.40;72.44
17362;BME280;8798;51.938;4.348;2023-02-28T11:11:50;103861.72;;;6.45;72.33
17362;BME280;8798;51.938;4.348;2023-02-28T11:14:21;103902.31;;;6.56;72.75
17362;BME280;8798;51.938;4.348;2023-02-28T11:16:49;103934.06;;;6.65;72.25
17362;BME280;8798;51.938;4.348;2023-02-28T11:19:23;103938.34;;;6.71;72.64
17362;BME280;8798;51.938;4.348;2023-02-28T11:21:55;103922.41;;;6.68;72.90
17362;BME280;8798;51.938;4.348;2023-02-28T11:24:26;103916.19;;;6.67;71.81
17362;BME280;8798;51.938;4.348;2023-02-28T11:26:56;103899.28;;;6.67;72.33
17362;BME280;8798;51.938;4.348;2023-02-28T11:29:26;103895.63;;;6.70;71.77
17362;BME280;8798;51.938;4.348;2023-02-28T11:32:03;103875.31;;;6.65;72.53
17362;BME280;8798;51.938;4.348;2023-02-28T11:34:32;103825.72;;;6.57;72.20
17362;BME280;8798;51.938;4.348;2023-02-28T11:37:01;103798.31;;;6.52;72.01
17362;BME280;8798;51.938;4.348;2023-02-28T11:39:31;103779.75;;;6.49;72.02
17362;BME280;8798;51.938;4.348;2023-02-28T11:42:22;103727.59;;;6.38;71.23
17362;BME280;8798;51.938;4.348;2023-02-28T11:45:03;103691.38;;;6.30;71.23
17362;BME280;8798;51.938;4.348;2023-02-28T11:47:38;103655.97;;;6.24;71.75
17362;BME280;8798;51.938;4.348;2023-02-28T11:50:22;103640.06;;;6.21;71.44
17362;BME280;8798;51.938;4.348;2023-02-28T11:52:54;103641.75;;;6.24;70.97
17362;BME280;8798;51.938;4.348;2023-02-28T11:55:25;103643.50;;;6.25;70.93
17362;BME280;8798;51.938;4.348;2023-02-28T11:58:14;103655.78;;;6.31;71.23
17362;BME280;8798;51.938;4.348;2023-02-28T12:00:57;103686.59;;;6.39;70.94
17362;BME280;8798;51.938;4.348;2023-02-28T12:03:39;103729.81;;;6.51;70.77
17362;BME280;8798;51.938;4.348;2023-02-28T12:06:19;103759.69;;;6.62;71.46
17362;BME280;8798;51.938;4.348;2023-02-28T12:09:00;103765.81;;;6.65;71.19
17362;BME280;8798;51.938;4.348;2023-02-28T12:11:36;103787.88;;;6.71;71.34
17362;BME280;8798;51.938;4.348;2023-02-28T12:14:25;103788.59;;;6.76;71.12
17362;BME280;8798;51.938;4.348;2023-02-28T12:17:04;103799.13;;;6.80;69.55
17362;BME280;8798;51.938;4.348;2023-02-28T12:19:43;103801.72;;;6.82;69.63
17362;BME280;8798;51.938;4.348;2023-02-28T12:22:27;103827.25;;;6.91;69.99
17362;BME280;8798;51.938;4.348;2023-02-28T12:27:59;103878.38;;;7.06;69.50
17362;BME280;8798;51.938;4.348;2023-02-28T12:30:30;103913.56;;;7.19;68.79
17362;BME280;8798;51.938;4.348;2023-02-28T12:33:04;103966.53;;;7.35;69.84
17362;BME280;8798;51.938;4.348;2023-02-28T12:35:35;104001.88;;;7.43;68.67
17362;BME280;8798;51.938;4.348;2023-02-28T12:38:10;103986.59;;;7.46;68.92
17362;BME280;8798;51.938;4.348;2023-02-28T12:40:44;103965.31;;;7.43;68.56
17362;BME280;8798;51.938;4.348;2023-02-28T12:43:13;103958.16;;;7.44;68.84
17362;BME280;8798;51.938;4.348;2023-02-28T12:45:46;103917.41;;;7.37;68.54
17362;BME280;8798;51.938;4.348;2023-02-28T12:48:21;103879.31;;;7.30;68.56
17362;BME280;8798;51.938;4.348;2023-02-28T12:50:51;103875.78;;;7.30;68.42
17362;BME280;8798;51.938;4.348;2023-02-28T12:53:26;103864.22;;;7.29;68.05
17362;BME280;8798;51.938;4.348;2023-02-28T12:56:08;103867.63;;;7.33;67.94
17362;BME280;8798;51.938;4.348;2023-02-28T12:58:39;103879.03;;;7.38;67.32
17362;BME280;8798;51.938;4.348;2023-02-28T13:01:27;103882.44;;;7.42;67.70
17362;BME280;8798;51.938;4.348;2023-02-28T13:04:13;103850.56;;;7.37;67.28
17362;BME280;8798;51.938;4.348;2023-02-28T13:07:00;103835.41;;;7.36;67.38
17362;BME280;8798;51.938;4.348;2023-02-28T13:09:35;103834.44;;;7.39;67.22
17362;BME280;8798;51.938;4.348;2023-02-28T13:12:12;103840.59;;;7.41;67.36
17362;BME280;8798;51.938;4.348;2023-02-28T13:14:41;103861.72;;;7.48;66.43
17362;BME280;8798;51.938;4.348;2023-02-28T13:17:14;103889.88;;;7.59;66.09
17362;BME280;8798;51.938;4.348;2023-02-28T13:19:46;103919.84;;;7.68;66.68
17362;BME280;8798;51.938;4.348;2023-02-28T13:22:38;103961.31;;;7.80;66.38
17362;BME280;8798;51.938;4.348;2023-02-28T13:32:26;104029.88;;;8.09;65.80
17362;BME280;8798;51.938;4.348;2023-02-28T13:35:34;104057.09;;;8.21;65.25
17362;BME280;8798;51.938;4.348;2023-02-28T13:38:16;104080.81;;;8.31;65.09
17362;BME280;8798;51.938;4.348;2023-02-28T13:40:44;104109.97;;;8.40;65.33
17362;BME280;8798;51.938;4.348;2023-02-28T13:43:16;104138.19;;;8.51;65.01
17362;BME280;8798;51.938;4.348;2023-02-28T13:46:11;104150.41;;;8.58;64.58
17362;BME280;8798;51.938;4.348;2023-02-28T13:48:41;104160.03;;;8.64;64.85